createdAt,value
2018-06-18T00:33:29.719Z,17.00
2018-06-18T00:35:57.540Z,16.80
2018-06-18T00:38:25.253Z,16.70
2018-06-18T00:40:53.008Z,17.00
2018-06-18T00:43:20.753Z,16.80
2018-06-18T00:45:48.547Z,16.60
2018-06-18T00:48:16.284Z,16.80
2018-06-18T00:50:44.015Z,16.90
2018-06-18T00:53:11.743Z,16.70
2018-06-18T00:55:50.739Z,16.80
2018-06-18T00:58:18.451Z,16.50
2018-06-18T01:00:46.187Z,16.90
2018-06-18T01:03:13.928Z,16.80
2018-06-18T01:05:41.691Z,16.90
2018-06-18T01:08:09.432Z,17.00
2018-06-18T01:10:37.463Z,16.90
2018-06-18T01:13:05.532Z,17.00
2018-06-18T01:15:33.269Z,16.90
2018-06-18T01:18:00.991Z,16.90
2018-06-18T01:24:22.595Z,16.90
2018-06-18T01:26:50.295Z,17.00
2018-06-18T01:29:18.041Z,17.00
2018-06-18T01:31:45.783Z,17.00
2018-06-18T01:34:20.392Z,16.90
2018-06-18T01:36:48.106Z,16.90
2018-06-18T01:39:15.847Z,17.00
2018-06-18T01:41:43.707Z,16.70
2018-06-18T01:44:11.450Z,17.10
2018-06-18T01:46:39.188Z,16.90
2018-06-18T01:49:06.921Z,17.00
2018-06-18T01:51:34.672Z,16.90
2018-06-18T01:54:02.411Z,16.90
2018-06-18T01:56:30.228Z,16.80
2018-06-18T01:58:57.935Z,16.80
2018-06-18T02:01:25.680Z,17.00
2018-06-18T02:03:53.431Z,16.90
2018-06-18T02:06:21.452Z,16.70
2018-06-18T02:08:49.172Z,16.90
2018-06-18T02:11:16.883Z,16.80
2018-06-18T02:13:44.616Z,16.80
2018-06-18T02:16:12.399Z,16.90
2018-06-18T02:18:40.128Z,17.00
2018-06-18T02:21:08.270Z,17.00
2018-06-18T02:23:36.113Z,16.70
2018-06-18T02:26:03.947Z,16.50
2018-06-18T02:28:37.412Z,16.40
2018-06-18T02:31:10.808Z,16.90
2018-06-18T02:33:44.604Z,17.00
2018-06-18T02:36:17.950Z,17.00
2018-06-18T02:39:06.754Z,16.90
2018-06-18T02:41:34.760Z,16.90
2018-06-18T02:44:02.676Z,16.90
2018-06-18T02:46:30.724Z,16.90
2018-06-18T02:48:58.501Z,16.90
2018-06-18T02:51:26.428Z,16.90
2018-06-18T02:53:54.220Z,16.80
2018-06-18T02:56:59.140Z,16.90
2018-06-18T02:59:26.904Z,16.90
2018-06-18T03:01:54.620Z,16.80
2018-06-18T03:04:22.363Z,16.80
2018-06-18T03:06:50.155Z,16.90
2018-06-18T03:09:17.871Z,16.90
2018-06-18T03:11:45.599Z,16.40
2018-06-18T03:14:13.356Z,17.00
2018-06-18T03:16:41.076Z,16.80
2018-06-18T03:19:14.384Z,16.90
2018-06-18T03:21:47.747Z,16.80
2018-06-18T03:24:21.034Z,17.00
2018-06-18T03:26:54.427Z,16.80
2018-06-18T03:29:24.434Z,16.80
2018-06-18T03:34:20.623Z,16.90
2018-06-18T03:36:48.412Z,16.80
2018-06-18T03:39:16.117Z,16.80
2018-06-18T03:44:16.971Z,16.40
2018-06-18T03:46:44.736Z,16.80
2018-06-18T03:51:40.084Z,16.90
2018-06-18T03:54:07.799Z,16.80
2018-06-18T03:56:35.530Z,16.80
2018-06-18T03:59:03.266Z,16.90
2018-06-18T04:01:45.104Z,16.90
2018-06-18T04:04:18.548Z,16.90
2018-06-18T04:06:51.844Z,17.00
2018-06-18T04:09:25.103Z,17.10
2018-06-18T04:11:58.473Z,17.00
2018-06-18T04:14:26.184Z,16.80
2018-06-18T04:19:21.582Z,17.00
2018-06-18T04:21:49.305Z,16.90
2018-06-18T04:24:17.062Z,17.10
2018-06-18T04:26:44.779Z,17.00
2018-06-18T04:29:12.524Z,16.90
2018-06-18T04:31:40.241Z,17.00
2018-06-18T04:34:44.120Z,17.00
2018-06-18T04:37:11.851Z,16.90
2018-06-18T04:39:39.588Z,17.00
2018-06-18T04:42:13.001Z,17.10
2018-06-18T04:44:46.445Z,17.10
2018-06-18T04:47:19.867Z,17.00
2018-06-18T04:49:53.274Z,16.90
2018-06-18T04:52:21.020Z,17.00
2018-06-18T04:57:16.352Z,17.30
2018-06-18T04:59:47.785Z,17.30
2018-06-18T05:04:43.168Z,17.50
2018-06-18T05:07:10.920Z,17.50
2018-06-18T05:10:15.499Z,17.20
2018-06-18T05:12:43.226Z,17.50
2018-06-18T05:15:10.991Z,17.60
2018-06-18T05:17:38.738Z,17.40
2018-06-18T05:20:06.460Z,17.30
2018-06-18T05:22:34.196Z,17.50
2018-06-18T05:25:01.928Z,17.50
2018-06-18T05:27:32.763Z,17.60
2018-06-18T05:30:04.931Z,17.50
2018-06-18T05:32:32.868Z,17.50
2018-06-18T05:35:00.584Z,17.60
2018-06-18T05:37:37.552Z,17.10
2018-06-18T05:40:05.305Z,17.50
2018-06-18T05:42:33.034Z,17.70
2018-06-18T05:45:00.783Z,17.70
2018-06-18T05:47:28.498Z,17.70
2018-06-18T05:49:56.232Z,17.80
2018-06-18T05:52:23.959Z,17.90
2018-06-18T05:54:51.695Z,17.60
2018-06-18T05:57:19.428Z,17.80
2018-06-18T06:02:14.838Z,17.80
2018-06-18T06:04:42.686Z,18.40
2018-06-18T06:07:10.523Z,18.40
2018-06-18T06:09:38.243Z,18.30
2018-06-18T06:12:07.248Z,18.00
2018-06-18T06:17:02.591Z,18.50
2018-06-18T06:19:30.315Z,18.50
2018-06-18T06:21:58.316Z,18.50
2018-06-18T06:26:53.704Z,18.50
2018-06-18T06:29:21.457Z,18.50
2018-06-18T06:31:49.194Z,18.60
2018-06-18T06:34:16.890Z,18.60
2018-06-18T06:36:44.630Z,18.80
2018-06-18T06:39:12.420Z,19.00
2018-06-18T06:41:43.116Z,19.00
2018-06-18T06:44:10.811Z,19.50
2018-06-18T06:46:38.540Z,19.50
2018-06-18T06:49:06.283Z,20.00
2018-06-18T06:54:01.643Z,19.80
2018-06-18T06:56:29.371Z,19.80
2018-06-18T07:01:24.757Z,19.60
2018-06-18T07:03:52.636Z,19.90
2018-06-18T07:06:20.402Z,19.80
2018-06-18T07:08:48.137Z,19.90
2018-06-18T07:11:15.953Z,19.40
2018-06-18T07:13:43.768Z,19.20
2018-06-18T07:18:39.139Z,19.30
2018-06-18T07:21:06.900Z,19.50
2018-06-18T07:28:29.915Z,18.90
2018-06-18T07:30:57.685Z,18.60
2018-06-18T07:33:25.423Z,18.80
2018-06-18T07:38:20.854Z,18.70
2018-06-18T07:43:16.168Z,18.70
2018-06-18T07:45:43.934Z,18.80
2018-06-18T07:48:11.765Z,19.10
2018-06-18T07:53:07.228Z,19.00
2018-06-18T07:55:34.990Z,19.20
2018-06-18T07:58:02.711Z,18.90
2018-06-18T08:00:30.439Z,18.60
2018-06-18T08:05:25.896Z,19.00
2018-06-18T08:07:53.732Z,18.90
2018-06-18T08:12:49.068Z,19.10
2018-06-18T08:15:16.775Z,19.20
2018-06-18T08:17:44.483Z,19.70
2018-06-18T08:27:37.545Z,19.60
2018-06-18T08:30:05.683Z,19.50
2018-06-18T08:32:33.820Z,19.90
2018-06-18T08:35:02.714Z,19.70
2018-06-18T08:42:26.260Z,20.30
2018-06-18T08:44:54.268Z,20.40
2018-06-18T08:47:21.968Z,20.70
2018-06-18T08:49:55.283Z,20.90
2018-06-18T08:52:28.656Z,20.80
2018-06-18T08:57:35.140Z,20.90
2018-06-18T09:05:11.101Z,21.90
2018-06-18T09:07:44.528Z,21.70
2018-06-18T09:12:40.068Z,22.90
2018-06-18T09:15:08.052Z,22.80
2018-06-18T09:17:36.011Z,23.40
2018-06-18T09:20:04.232Z,23.00
2018-06-18T09:22:31.980Z,22.20
2018-06-18T09:24:59.701Z,22.00
2018-06-18T09:27:27.456Z,22.10
2018-06-18T09:30:00.915Z,21.40
2018-06-18T09:32:28.803Z,20.90
2018-06-18T09:37:24.045Z,21.00
2018-06-18T09:44:47.091Z,21.20
2018-06-18T09:47:14.881Z,21.00
2018-06-18T09:49:48.228Z,21.60
2018-06-18T09:52:21.721Z,21.40
2018-06-18T09:54:55.155Z,21.20
2018-06-18T09:57:28.616Z,21.20
2018-06-18T10:00:00.056Z,21.10
2018-06-18T10:02:28.697Z,21.30
2018-06-18T10:04:57.840Z,21.10
2018-06-18T10:07:25.612Z,20.90
2018-06-18T10:09:53.572Z,20.70
2018-06-18T10:12:21.336Z,20.90
2018-06-18T10:14:49.096Z,20.70
2018-06-18T10:17:17.599Z,21.30
2018-06-18T10:19:45.308Z,21.40
2018-06-18T10:22:13.077Z,21.30
2018-06-18T10:24:40.809Z,21.50
2018-06-18T10:27:08.523Z,21.70
2018-06-18T10:32:05.269Z,22.30
2018-06-18T10:34:38.596Z,23.00
2018-06-18T10:37:11.924Z,23.80
2018-06-18T10:39:45.323Z,25.40
2018-06-18T10:42:18.796Z,25.00
2018-06-18T10:44:46.607Z,24.60
2018-06-18T10:47:14.305Z,24.70
2018-06-18T10:49:42.047Z,25.20
2018-06-18T10:52:09.776Z,25.30
2018-06-18T10:54:37.537Z,24.70
2018-06-18T10:57:05.408Z,24.50
2018-06-18T10:59:33.131Z,23.30
2018-06-18T11:02:00.873Z,22.90
2018-06-18T11:04:28.812Z,22.70
2018-06-18T11:06:56.674Z,22.80
2018-06-18T11:09:24.760Z,22.20
2018-06-18T11:11:52.580Z,22.20
2018-06-18T11:14:20.320Z,22.20
2018-06-18T11:16:53.712Z,21.90
2018-06-18T11:22:00.455Z,22.40
2018-06-18T11:24:33.836Z,22.40
2018-06-18T11:27:01.609Z,22.60
2018-06-18T11:29:29.361Z,22.40
2018-06-18T11:31:57.131Z,22.50
2018-06-18T11:34:24.875Z,22.40
2018-06-18T11:36:52.766Z,22.50
2018-06-18T11:39:20.529Z,22.50
2018-06-18T11:44:15.876Z,22.10
2018-06-18T11:46:43.622Z,22.30
2018-06-18T11:49:11.360Z,22.40
2018-06-18T11:54:06.727Z,22.50
2018-06-18T11:56:34.493Z,22.60
2018-06-18T11:59:07.924Z,22.60
2018-06-18T12:01:41.272Z,23.00
2018-06-18T12:04:14.667Z,23.10
2018-06-18T12:06:48.187Z,23.20
2018-06-18T12:09:21.597Z,23.10
2018-06-18T12:11:49.817Z,22.70
2018-06-18T12:14:17.528Z,22.40
2018-06-18T12:16:45.297Z,22.50
2018-06-18T12:19:13.009Z,22.40
2018-06-18T12:21:40.745Z,22.30
2018-06-18T12:24:09.110Z,22.30
2018-06-18T12:26:36.977Z,22.30
2018-06-18T12:29:04.768Z,22.50
2018-06-18T12:34:00.124Z,22.70
2018-06-18T12:36:27.963Z,22.70
2018-06-18T12:38:55.735Z,22.80
2018-06-18T12:41:23.544Z,22.50
2018-06-18T12:47:27.136Z,22.40
2018-06-18T12:50:00.429Z,22.60
2018-06-18T12:52:40.649Z,22.50
2018-06-18T12:55:14.121Z,21.90
2018-06-18T12:57:41.840Z,21.90
2018-06-18T13:05:07.517Z,22.50
2018-06-18T13:07:35.251Z,22.60
2018-06-18T13:10:03.191Z,22.90
2018-06-18T13:12:30.896Z,22.80
2018-06-18T13:14:58.654Z,23.10
2018-06-18T13:19:53.972Z,23.50
2018-06-18T13:24:49.387Z,24.30
2018-06-18T13:29:44.772Z,23.70
2018-06-18T13:32:12.615Z,23.70
2018-06-18T13:34:40.323Z,23.00
2018-06-18T13:37:13.780Z,22.80
2018-06-18T13:39:46.999Z,22.80
2018-06-18T13:42:20.391Z,22.20
2018-06-18T13:44:53.867Z,22.60
2018-06-18T13:47:27.068Z,21.80
2018-06-18T13:49:56.044Z,21.90
2018-06-18T13:52:25.160Z,22.00
2018-06-18T13:54:53.508Z,22.00
2018-06-18T13:57:21.315Z,22.30
2018-06-18T13:59:49.237Z,22.50
2018-06-18T14:02:17.002Z,22.60
2018-06-18T14:07:12.445Z,22.40
2018-06-18T14:09:40.140Z,22.30
2018-06-18T14:12:07.848Z,22.20
2018-06-18T14:14:35.584Z,22.20
2018-06-18T14:17:03.275Z,22.50
2018-06-18T14:19:36.811Z,22.40
2018-06-18T14:22:04.550Z,22.50
2018-06-18T14:24:32.281Z,22.50
2018-06-18T14:27:00.052Z,22.70
2018-06-18T14:32:00.952Z,22.90
2018-06-18T14:34:34.255Z,22.70
2018-06-18T14:37:07.523Z,22.90
2018-06-18T14:39:40.896Z,23.00
2018-06-18T14:42:09.098Z,23.30
2018-06-18T14:44:37.701Z,23.30
2018-06-18T14:47:05.487Z,22.80
2018-06-18T14:49:33.244Z,23.00
2018-06-18T14:52:01.004Z,22.70
2018-06-18T14:54:28.729Z,23.10
2018-06-18T14:59:45.212Z,23.10
2018-06-18T15:02:12.932Z,22.80
2018-06-18T15:04:40.676Z,22.80
2018-06-18T15:07:08.838Z,23.40
2018-06-18T15:09:36.737Z,23.30
2018-06-18T15:12:04.461Z,23.40
2018-06-18T15:14:32.238Z,23.70
2018-06-18T15:19:27.604Z,24.00
2018-06-18T15:21:57.139Z,24.30
2018-06-18T15:24:33.083Z,24.00
2018-06-18T15:27:00.859Z,24.10
2018-06-18T15:29:28.537Z,24.10
2018-06-18T15:31:56.224Z,24.00
2018-06-18T15:36:51.592Z,23.50
2018-06-18T15:39:19.372Z,23.40
2018-06-18T15:41:47.160Z,23.80
2018-06-18T15:44:15.095Z,23.60
2018-06-18T15:46:42.660Z,23.60
2018-06-18T15:49:10.461Z,23.10
2018-06-18T15:51:38.300Z,23.30
2018-06-18T15:54:06.419Z,23.30
2018-06-18T15:56:34.209Z,22.80
2018-06-18T15:59:02.525Z,23.30
2018-06-18T16:01:30.243Z,23.30
2018-06-18T16:03:58.028Z,23.00
2018-06-18T16:06:25.756Z,23.40
2018-06-18T16:08:53.532Z,23.30
2018-06-18T16:11:21.261Z,23.00
2018-06-18T16:13:49.017Z,23.20
2018-06-18T16:16:16.731Z,22.90
2018-06-18T16:18:44.504Z,23.10
2018-06-18T16:21:12.196Z,23.10
2018-06-18T16:23:39.955Z,22.90
2018-06-18T16:26:07.671Z,23.50
2018-06-18T16:28:35.411Z,23.30
2018-06-18T16:31:03.179Z,23.40
2018-06-18T16:33:30.981Z,23.50
2018-06-18T16:35:58.719Z,23.40
2018-06-18T16:40:54.027Z,23.30
2018-06-18T16:43:21.724Z,23.60
2018-06-18T16:45:49.479Z,23.50
2018-06-18T16:48:17.340Z,23.80
2018-06-18T16:50:45.028Z,23.60
2018-06-18T16:53:12.757Z,23.60
2018-06-18T16:58:08.257Z,23.40
2018-06-18T17:00:36.040Z,23.60
2018-06-18T17:03:03.724Z,23.40
2018-06-18T17:07:59.080Z,23.30
2018-06-18T17:10:26.803Z,23.00
2018-06-18T17:12:54.535Z,23.30
2018-06-18T17:15:22.239Z,22.80
2018-06-18T17:20:17.742Z,23.10
2018-06-18T17:22:45.456Z,23.30
2018-06-18T17:25:13.173Z,23.40
2018-06-18T17:27:40.951Z,23.20
2018-06-18T17:32:36.443Z,23.30
2018-06-18T17:35:04.334Z,23.30
2018-06-18T17:37:32.046Z,23.30
2018-06-18T17:39:59.763Z,22.70
2018-06-18T17:42:27.498Z,22.80
2018-06-18T17:44:55.229Z,22.70
2018-06-18T17:47:23.036Z,22.50
2018-06-18T17:49:50.791Z,22.60
2018-06-18T17:52:18.548Z,22.50
2018-06-18T17:54:46.292Z,22.70
2018-06-18T17:57:14.079Z,22.90
2018-06-18T17:59:41.803Z,22.70
2018-06-18T18:02:09.570Z,22.70
2018-06-18T18:04:37.308Z,23.20
2018-06-18T18:07:05.075Z,22.60
2018-06-18T18:09:32.860Z,22.60
2018-06-18T18:12:00.720Z,22.70
2018-06-18T18:14:28.426Z,22.50
2018-06-18T18:16:56.160Z,22.70
2018-06-18T18:19:23.866Z,22.60
2018-06-18T18:21:51.608Z,23.20
2018-06-18T18:24:19.351Z,22.70
2018-06-18T18:26:47.109Z,23.30
2018-06-18T18:29:14.901Z,22.70
2018-06-18T18:31:42.668Z,22.70
2018-06-18T18:34:10.395Z,23.20
2018-06-18T18:36:38.111Z,22.60
2018-06-18T18:39:07.800Z,22.80
2018-06-18T18:41:35.564Z,22.70
2018-06-18T18:44:03.409Z,22.60
2018-06-18T18:46:31.180Z,22.50
2018-06-18T18:48:58.926Z,22.40
2018-06-18T18:53:54.244Z,22.70
2018-06-18T18:56:33.285Z,22.50
2018-06-18T19:01:43.126Z,22.40
2018-06-18T19:04:13.716Z,22.00
2018-06-18T19:06:41.548Z,22.30
2018-06-18T19:11:37.788Z,21.80
2018-06-18T19:16:33.197Z,22.00
2018-06-18T19:19:01.737Z,21.50
2018-06-18T19:21:29.495Z,21.80
2018-06-18T19:23:57.259Z,21.50
2018-06-18T19:26:25.142Z,21.60
2018-06-18T19:28:52.909Z,21.60
2018-06-18T19:33:55.942Z,21.30
2018-06-18T19:36:23.757Z,21.20
2018-06-18T19:38:51.488Z,21.40
2018-06-18T19:41:19.242Z,21.60
2018-06-18T19:43:46.959Z,21.50
2018-06-18T19:46:15.752Z,20.90
2018-06-18T19:48:50.347Z,21.40
2018-06-18T19:53:45.785Z,21.20
2018-06-18T19:56:13.614Z,21.10
2018-06-18T19:58:41.420Z,21.00
2018-06-18T20:01:09.427Z,20.70
2018-06-18T20:03:37.220Z,20.70
2018-06-18T20:06:05.044Z,20.90
2018-06-18T20:08:32.867Z,20.90
2018-06-18T20:11:00.623Z,20.70
2018-06-18T20:15:56.105Z,20.80
2018-06-18T20:18:23.868Z,20.70
2018-06-18T20:20:51.680Z,20.70
2018-06-18T20:23:21.601Z,20.80
2018-06-18T20:25:53.696Z,20.70
2018-06-18T20:28:21.511Z,20.70
2018-06-18T20:30:49.327Z,21.00
2018-06-18T20:33:18.571Z,20.90
2018-06-18T20:35:50.199Z,20.80
2018-06-18T20:38:17.985Z,20.80
2018-06-18T20:40:45.739Z,20.90
2018-06-18T20:43:13.564Z,20.80
2018-06-18T20:45:41.341Z,20.60
2018-06-18T20:48:09.177Z,20.50
2018-06-18T20:50:36.927Z,20.50
2018-06-18T20:53:04.736Z,20.80
2018-06-18T20:55:32.502Z,20.80
2018-06-18T20:58:00.307Z,20.30
2018-06-18T21:00:28.077Z,20.40
2018-06-18T21:02:55.836Z,20.40
2018-06-18T21:05:23.716Z,20.20
2018-06-18T21:07:51.505Z,19.90
2018-06-18T21:10:19.359Z,20.10
2018-06-18T21:12:47.168Z,19.90
2018-06-18T21:15:14.981Z,20.10
2018-06-18T21:17:42.752Z,19.80
2018-06-18T21:20:10.532Z,20.10
2018-06-18T21:25:06.986Z,19.80
2018-06-18T21:27:34.907Z,20.10
2018-06-18T21:30:02.740Z,19.90
2018-06-18T21:32:30.571Z,19.80
2018-06-18T21:37:25.964Z,19.80
2018-06-18T21:39:53.680Z,19.80
2018-06-18T21:44:54.872Z,19.80
2018-06-18T21:47:22.722Z,19.80
2018-06-18T21:49:50.465Z,20.20
2018-06-18T21:54:45.831Z,19.60
2018-06-18T21:57:13.600Z,20.10
2018-06-18T21:59:41.399Z,19.90
2018-06-18T22:02:09.192Z,19.80
2018-06-18T22:07:04.968Z,19.60
2018-06-18T22:09:32.800Z,19.50
2018-06-18T22:12:00.541Z,19.70
2018-06-18T22:14:28.328Z,19.70
2018-06-18T22:16:56.129Z,19.70
2018-06-18T22:19:23.894Z,19.60
2018-06-18T22:21:51.672Z,19.20
2018-06-18T22:24:19.455Z,19.70
2018-06-18T22:26:47.260Z,19.80
2018-06-18T22:29:15.758Z,19.60
2018-06-18T22:31:43.577Z,19.40
2018-06-18T22:34:11.455Z,19.50
2018-06-18T22:36:39.297Z,19.60
2018-06-18T22:39:09.060Z,19.80
2018-06-18T22:41:36.866Z,19.60
2018-06-18T22:44:04.838Z,19.70
2018-06-18T22:46:32.634Z,19.60
2018-06-18T22:49:00.460Z,19.30
2018-06-18T22:51:28.224Z,19.30
2018-06-18T22:53:56.046Z,19.30
2018-06-18T22:56:23.888Z,19.30
2018-06-18T22:58:51.732Z,19.00
2018-06-18T23:01:19.485Z,19.20
2018-06-18T23:03:47.278Z,19.20
2018-06-18T23:06:15.120Z,18.60
2018-06-18T23:08:43.036Z,18.80
2018-06-18T23:13:38.917Z,19.10
2018-06-18T23:16:08.101Z,18.80
2018-06-18T23:18:35.966Z,18.70
2018-06-18T23:21:03.788Z,18.70
2018-06-18T23:23:31.633Z,18.70
2018-06-18T23:25:59.591Z,18.40
2018-06-18T23:28:32.152Z,18.50
2018-06-18T23:30:59.939Z,18.60
2018-06-18T23:33:27.700Z,18.60
2018-06-18T23:35:55.466Z,18.60
2018-06-18T23:38:23.327Z,18.60
2018-06-18T23:40:51.129Z,18.50
2018-06-18T23:43:19.960Z,18.20
2018-06-18T23:45:47.852Z,18.50
2018-06-18T23:48:15.703Z,18.20
2018-06-18T23:50:43.737Z,18.10
2018-06-18T23:55:39.771Z,17.80
2018-06-18T23:58:07.588Z,18.00
